sensor_id;sensor_type;location;lat;lon;timestamp;P1;durP1;ratioP1;P2;durP2;ratioP2
77866;SDS011;67271;59.120;37.970;2023-01-31T00:05:20;3.83;;;2.65;;
77866;SDS011;67271;59.120;37.970;2023-01-31T00:07:46;3.88;;;2.67;;
77866;SDS011;67271;59.120;37.970;2023-01-31T00:10:12;1.73;;;1.50;;
77866;SDS011;67271;59.120;37.970;2023-01-31T00:12:38;5.50;;;3.80;;
77866;SDS011;67271;59.120;37.970;2023-01-31T00:15:04;3.00;;;2.42;;
77866;SDS011;67271;59.120;37.970;2023-01-31T00:17:30;4.90;;;3.20;;
77866;SDS011;67271;59.120;37.970;2023-01-31T00:19:56;4.90;;;3.47;;
77866;SDS011;67271;59.120;37.970;2023-01-31T00:22:21;5.20;;;3.05;;
77866;SDS011;67271;59.120;37.970;2023-01-31T00:24:47;7.07;;;3.28;;
77866;SDS011;67271;59.120;37.970;2023-01-31T00:27:13;5.45;;;3.70;;
77866;SDS011;67271;59.120;37.970;2023-01-31T00:29:38;6.05;;;3.42;;
77866;SDS011;67271;59.120;37.970;2023-01-31T00:32:04;3.13;;;1.80;;
77866;SDS011;67271;59.120;37.970;2023-01-31T00:34:30;4.95;;;2.85;;
77866;SDS011;67271;59.120;37.970;2023-01-31T00:36:56;3.80;;;3.10;;
77866;SDS011;67271;59.120;37.970;2023-01-31T00:39:21;3.55;;;2.42;;
77866;SDS011;67271;59.120;37.970;2023-01-31T00:41:47;2.70;;;1.90;;
77866;SDS011;67271;59.120;37.970;2023-01-31T00:44:13;3.30;;;2.42;;
77866;SDS011;67271;59.120;37.970;2023-01-31T00:46:39;3.55;;;2.35;;
77866;SDS011;67271;59.120;37.970;2023-01-31T00:49:04;2.58;;;2.08;;
77866;SDS011;67271;59.120;37.970;2023-01-31T00:51:30;5.13;;;3.72;;
77866;SDS011;67271;59.120;37.970;2023-01-31T00:53:56;1.52;;;1.40;;
77866;SDS011;67271;59.120;37.970;2023-01-31T00:56:23;4.65;;;2.60;;
77866;SDS011;67271;59.120;37.970;2023-01-31T00:58:50;2.53;;;2.05;;
77866;SDS011;67271;59.120;37.970;2023-01-31T01:01:24;6.28;;;3.92;;
77866;SDS011;67271;59.120;37.970;2023-01-31T01:03:51;2.50;;;2.08;;
77866;SDS011;67271;59.120;37.970;2023-01-31T01:06:17;4.32;;;2.65;;
77866;SDS011;67271;59.120;37.970;2023-01-31T01:08:44;3.70;;;2.80;;
77866;SDS011;67271;59.120;37.970;2023-01-31T01:11:11;7.70;;;3.88;;
77866;SDS011;67271;59.120;37.970;2023-01-31T01:13:39;5.18;;;2.92;;
77866;SDS011;67271;59.120;37.970;2023-01-31T01:16:06;6.82;;;4.40;;
77866;SDS011;67271;59.120;37.970;2023-01-31T01:18:37;6.15;;;4.22;;
77866;SDS011;67271;59.120;37.970;2023-01-31T01:21:04;4.57;;;2.28;;
77866;SDS011;67271;59.120;37.970;2023-01-31T01:23:31;7.70;;;3.35;;
77866;SDS011;67271;59.120;37.970;2023-01-31T01:25:57;5.40;;;3.63;;
77866;SDS011;67271;59.120;37.970;2023-01-31T01:28:23;2.50;;;1.95;;
77866;SDS011;67271;59.120;37.970;2023-01-31T01:30:49;4.45;;;2.88;;
77866;SDS011;67271;59.120;37.970;2023-01-31T01:33:14;2.30;;;1.75;;
77866;SDS011;67271;59.120;37.970;2023-01-31T01:35:40;4.97;;;2.50;;
77866;SDS011;67271;59.120;37.970;2023-01-31T01:38:06;5.57;;;3.38;;
77866;SDS011;67271;59.120;37.970;2023-01-31T01:40:35;4.95;;;2.75;;
77866;SDS011;67271;59.120;37.970;2023-01-31T01:43:02;2.75;;;1.60;;
77866;SDS011;67271;59.120;37.970;2023-01-31T01:45:28;3.70;;;2.78;;
77866;SDS011;67271;59.120;37.970;2023-01-31T01:47:56;5.60;;;3.63;;
77866;SDS011;67271;59.120;37.970;2023-01-31T01:50:32;4.47;;;2.67;;
77866;SDS011;67271;59.120;37.970;2023-01-31T01:53:04;4.68;;;2.85;;
77866;SDS011;67271;59.120;37.970;2023-01-31T01:55:41;4.22;;;2.72;;
77866;SDS011;67271;59.120;37.970;2023-01-31T01:58:16;3.47;;;2.50;;
77866;SDS011;67271;59.120;37.970;2023-01-31T02:01:06;3.90;;;2.78;;
77866;SDS011;67271;59.120;37.970;2023-01-31T02:03:33;3.58;;;2.30;;
77866;SDS011;67271;59.120;37.970;2023-01-31T02:06:03;4.22;;;2.25;;
77866;SDS011;67271;59.120;37.970;2023-01-31T02:08:31;6.47;;;3.45;;
77866;SDS011;67271;59.120;37.970;2023-01-31T02:13:48;2.92;;;2.50;;
77866;SDS011;67271;59.120;37.970;2023-01-31T02:16:18;4.18;;;2.72;;
77866;SDS011;67271;59.120;37.970;2023-01-31T02:18:44;8.07;;;3.03;;
77866;SDS011;67271;59.120;37.970;2023-01-31T02:48:16;4.32;;;3.20;;
77866;SDS011;67271;59.120;37.970;2023-01-31T02:51:03;5.25;;;3.63;;
77866;SDS011;67271;59.120;37.970;2023-01-31T02:53:37;3.78;;;2.80;;
77866;SDS011;67271;59.120;37.970;2023-01-31T02:56:19;3.78;;;1.85;;
77866;SDS011;67271;59.120;37.970;2023-01-31T02:58:56;4.90;;;3.10;;
77866;SDS011;67271;59.120;37.970;2023-01-31T03:01:34;4.43;;;3.10;;
77866;SDS011;67271;59.120;37.970;2023-01-31T03:04:03;3.60;;;2.53;;
77866;SDS011;67271;59.120;37.970;2023-01-31T03:14:31;7.22;;;4.00;;
77866;SDS011;67271;59.120;37.970;2023-01-31T03:17:28;3.53;;;2.08;;
77866;SDS011;67271;59.120;37.970;2023-01-31T03:22:57;4.15;;;3.03;;
77866;SDS011;67271;59.120;37.970;2023-01-31T03:25:28;8.15;;;3.97;;
77866;SDS011;67271;59.120;37.970;2023-01-31T03:28:00;5.85;;;3.45;;
77866;SDS011;67271;59.120;37.970;2023-01-31T03:30:35;5.28;;;3.78;;
77866;SDS011;67271;59.120;37.970;2023-01-31T03:33:07;3.15;;;2.35;;
77866;SDS011;67271;59.120;37.970;2023-01-31T03:35:40;4.03;;;2.88;;
77866;SDS011;67271;59.120;37.970;2023-01-31T03:38:10;1.25;;;1.23;;
77866;SDS011;67271;59.120;37.970;2023-01-31T03:40:44;5.10;;;3.78;;
77866;SDS011;67271;59.120;37.970;2023-01-31T03:45:56;5.47;;;3.13;;
77866;SDS011;67271;59.120;37.970;2023-01-31T03:48:27;7.28;;;3.83;;
77866;SDS011;67271;59.120;37.970;2023-01-31T03:50:58;7.20;;;3.60;;
77866;SDS011;67271;59.120;37.970;2023-01-31T03:58:34;8.45;;;4.22;;
77866;SDS011;67271;59.120;37.970;2023-01-31T04:01:05;6.90;;;4.28;;
77866;SDS011;67271;59.120;37.970;2023-01-31T04:03:44;5.57;;;4.15;;
77866;SDS011;67271;59.120;37.970;2023-01-31T04:06:18;5.47;;;3.25;;
77866;SDS011;67271;59.120;37.970;2023-01-31T04:08:44;5.82;;;3.70;;
77866;SDS011;67271;59.120;37.970;2023-01-31T04:11:12;8.43;;;4.38;;
77866;SDS011;67271;59.120;37.970;2023-01-31T04:13:39;5.53;;;3.90;;
77866;SDS011;67271;59.120;37.970;2023-01-31T04:16:06;8.20;;;4.43;;
77866;SDS011;67271;59.120;37.970;2023-01-31T04:18:32;6.00;;;4.30;;
77866;SDS011;67271;59.120;37.970;2023-01-31T04:20:57;7.55;;;4.80;;
77866;SDS011;67271;59.120;37.970;2023-01-31T04:23:23;6.47;;;3.88;;
77866;SDS011;67271;59.120;37.970;2023-01-31T04:25:53;6.55;;;3.45;;
77866;SDS011;67271;59.120;37.970;2023-01-31T04:28:20;7.43;;;4.25;;
77866;SDS011;67271;59.120;37.970;2023-01-31T04:30:50;7.05;;;3.63;;
77866;SDS011;67271;59.120;37.970;2023-01-31T04:33:20;3.33;;;2.83;;
77866;SDS011;67271;59.120;37.970;2023-01-31T04:35:46;5.75;;;3.92;;
77866;SDS011;67271;59.120;37.970;2023-01-31T04:38:12;6.18;;;4.28;;
77866;SDS011;67271;59.120;37.970;2023-01-31T04:40:38;3.72;;;2.80;;
77866;SDS011;67271;59.120;37.970;2023-01-31T04:43:04;6.55;;;3.53;;
77866;SDS011;67271;59.120;37.970;2023-01-31T04:45:29;6.38;;;4.93;;
77866;SDS011;67271;59.120;37.970;2023-01-31T04:47:55;7.13;;;4.20;;
77866;SDS011;67271;59.120;37.970;2023-01-31T04:50:21;8.82;;;4.28;;
77866;SDS011;67271;59.120;37.970;2023-01-31T04:52:50;7.68;;;4.30;;
77866;SDS011;67271;59.120;37.970;2023-01-31T04:55:16;9.80;;;4.90;;
77866;SDS011;67271;59.120;37.970;2023-01-31T04:57:43;7.75;;;4.65;;
77866;SDS011;67271;59.120;37.970;2023-01-31T05:00:09;10.82;;;4.10;;
77866;SDS011;67271;59.120;37.970;2023-01-31T05:02:35;4.32;;;2.38;;
77866;SDS011;67271;59.120;37.970;2023-01-31T05:05:01;9.57;;;4.57;;
77866;SDS011;67271;59.120;37.970;2023-01-31T05:07:28;5.63;;;3.35;;
77866;SDS011;67271;59.120;37.970;2023-01-31T05:09:53;7.75;;;4.47;;
77866;SDS011;67271;59.120;37.970;2023-01-31T05:12:19;4.28;;;2.88;;
77866;SDS011;67271;59.120;37.970;2023-01-31T05:14:45;7.82;;;5.13;;
77866;SDS011;67271;59.120;37.970;2023-01-31T05:17:11;9.80;;;4.35;;
77866;SDS011;67271;59.120;37.970;2023-01-31T05:19:37;5.05;;;3.92;;
77866;SDS011;67271;59.120;37.970;2023-01-31T05:22:03;8.45;;;4.32;;
77866;SDS011;67271;59.120;37.970;2023-01-31T05:24:30;8.95;;;3.47;;
77866;SDS011;67271;59.120;37.970;2023-01-31T05:26:58;6.95;;;3.72;;
77866;SDS011;67271;59.120;37.970;2023-01-31T05:29:29;5.22;;;3.55;;
77866;SDS011;67271;59.120;37.970;2023-01-31T05:31:56;11.50;;;4.50;;
77866;SDS011;67271;59.120;37.970;2023-01-31T05:34:24;8.95;;;4.30;;
77866;SDS011;67271;59.120;37.970;2023-01-31T05:36:51;3.85;;;2.38;;
77866;SDS011;67271;59.120;37.970;2023-01-31T05:39:17;4.25;;;2.67;;
77866;SDS011;67271;59.120;37.970;2023-01-31T05:41:43;5.57;;;3.55;;
77866;SDS011;67271;59.120;37.970;2023-01-31T05:44:09;5.05;;;3.40;;
77866;SDS011;67271;59.120;37.970;2023-01-31T05:46:35;6.85;;;4.68;;
77866;SDS011;67271;59.120;37.970;2023-01-31T05:49:02;6.97;;;3.28;;
77866;SDS011;67271;59.120;37.970;2023-01-31T05:51:28;7.60;;;4.80;;
77866;SDS011;67271;59.120;37.970;2023-01-31T05:53:54;6.57;;;4.40;;
77866;SDS011;67271;59.120;37.970;2023-01-31T05:56:20;5.07;;;3.25;;
77866;SDS011;67271;59.120;37.970;2023-01-31T05:58:47;5.43;;;3.78;;
77866;SDS011;67271;59.120;37.970;2023-01-31T06:01:26;10.48;;;4.10;;
77866;SDS011;67271;59.120;37.970;2023-01-31T06:03:52;6.85;;;4.18;;
77866;SDS011;67271;59.120;37.970;2023-01-31T06:06:18;3.22;;;2.30;;
77866;SDS011;67271;59.120;37.970;2023-01-31T06:08:45;6.38;;;4.10;;
77866;SDS011;67271;59.120;37.970;2023-01-31T06:11:11;6.85;;;4.13;;
77866;SDS011;67271;59.120;37.970;2023-01-31T06:13:38;3.17;;;2.42;;
77866;SDS011;67271;59.120;37.970;2023-01-31T06:16:06;7.63;;;4.40;;
77866;SDS011;67271;59.120;37.970;2023-01-31T06:18:32;6.30;;;3.50;;
77866;SDS011;67271;59.120;37.970;2023-01-31T06:20:58;7.30;;;4.10;;
77866;SDS011;67271;59.120;37.970;2023-01-31T06:23:24;5.57;;;3.63;;
77866;SDS011;67271;59.120;37.970;2023-01-31T06:25:50;7.53;;;3.80;;
77866;SDS011;67271;59.120;37.970;2023-01-31T06:28:17;6.75;;;3.97;;
77866;SDS011;67271;59.120;37.970;2023-01-31T06:30:43;9.57;;;4.43;;
77866;SDS011;67271;59.120;37.970;2023-01-31T06:33:09;6.10;;;3.47;;
77866;SDS011;67271;59.120;37.970;2023-01-31T06:35:35;7.22;;;3.67;;
77866;SDS011;67271;59.120;37.970;2023-01-31T06:38:01;7.85;;;2.55;;
77866;SDS011;67271;59.120;37.970;2023-01-31T06:40:27;5.97;;;4.13;;
77866;SDS011;67271;59.120;37.970;2023-01-31T06:42:53;8.77;;;4.38;;
77866;SDS011;67271;59.120;37.970;2023-01-31T06:45:19;6.53;;;4.10;;
77866;SDS011;67271;59.120;37.970;2023-01-31T06:47:45;6.85;;;4.60;;
77866;SDS011;67271;59.120;37.970;2023-01-31T06:50:11;5.75;;;3.67;;
77866;SDS011;67271;59.120;37.970;2023-01-31T06:52:38;6.85;;;4.55;;
77866;SDS011;67271;59.120;37.970;2023-01-31T06:55:04;8.38;;;4.30;;
77866;SDS011;67271;59.120;37.970;2023-01-31T06:57:31;6.47;;;4.35;;
77866;SDS011;67271;59.120;37.970;2023-01-31T06:59:57;4.05;;;2.35;;
77866;SDS011;67271;59.120;37.970;2023-01-31T07:02:22;8.18;;;3.25;;
77866;SDS011;67271;59.120;37.970;2023-01-31T07:04:48;4.65;;;2.63;;
77866;SDS011;67271;59.120;37.970;2023-01-31T07:07:14;5.85;;;3.65;;
77866;SDS011;67271;59.120;37.970;2023-01-31T07:09:40;8.40;;;4.68;;
77866;SDS011;67271;59.120;37.970;2023-01-31T07:12:06;6.13;;;3.65;;
77866;SDS011;67271;59.120;37.970;2023-01-31T07:14:32;7.75;;;3.67;;
77866;SDS011;67271;59.120;37.970;2023-01-31T07:16:58;8.15;;;4.10;;
77866;SDS011;67271;59.120;37.970;2023-01-31T07:19:24;8.30;;;4.70;;
77866;SDS011;67271;59.120;37.970;2023-01-31T07:21:50;6.03;;;3.60;;
77866;SDS011;67271;59.120;37.970;2023-01-31T07:24:16;8.13;;;3.65;;
77866;SDS011;67271;59.120;37.970;2023-01-31T07:26:42;7.25;;;3.30;;
77866;SDS011;67271;59.120;37.970;2023-01-31T07:29:08;7.00;;;3.38;;
77866;SDS011;67271;59.120;37.970;2023-01-31T07:31:34;7.25;;;4.03;;
77866;SDS011;67271;59.120;37.970;2023-01-31T07:34:00;7.63;;;4.13;;
77866;SDS011;67271;59.120;37.970;2023-01-31T07:36:26;6.15;;;3.40;;
77866;SDS011;67271;59.120;37.970;2023-01-31T07:38:53;6.57;;;4.10;;
77866;SDS011;67271;59.120;37.970;2023-01-31T07:41:20;5.35;;;3.15;;
77866;SDS011;67271;59.120;37.970;2023-01-31T07:43:47;7.25;;;4.00;;
77866;SDS011;67271;59.120;37.970;2023-01-31T07:46:12;4.78;;;2.92;;
77866;SDS011;67271;59.120;37.970;2023-01-31T07:48:38;7.22;;;3.47;;
77866;SDS011;67271;59.120;37.970;2023-01-31T07:51:04;5.68;;;3.85;;
77866;SDS011;67271;59.120;37.970;2023-01-31T07:53:31;5.78;;;3.75;;
77866;SDS011;67271;59.120;37.970;2023-01-31T07:58:42;3.75;;;2.15;;
77866;SDS011;67271;59.120;37.970;2023-01-31T08:04:02;9.13;;;3.78;;
77866;SDS011;67271;59.120;37.970;2023-01-31T08:06:30;5.95;;;3.65;;
77866;SDS011;67271;59.120;37.970;2023-01-31T08:08:57;7.30;;;4.18;;
77866;SDS011;67271;59.120;37.970;2023-01-31T08:11:24;6.03;;;3.83;;
77866;SDS011;67271;59.120;37.970;2023-01-31T08:13:50;5.65;;;3.15;;
77866;SDS011;67271;59.120;37.970;2023-01-31T08:16:16;6.68;;;3.17;;
77866;SDS011;67271;59.120;37.970;2023-01-31T08:18:42;7.00;;;3.50;;
77866;SDS011;67271;59.120;37.970;2023-01-31T08:21:09;5.25;;;3.08;;
77866;SDS011;67271;59.120;37.970;2023-01-31T08:23:36;5.90;;;3.47;;
77866;SDS011;67271;59.120;37.970;2023-01-31T08:26:07;5.80;;;3.22;;
77866;SDS011;67271;59.120;37.970;2023-01-31T08:28:44;4.85;;;3.38;;
77866;SDS011;67271;59.120;37.970;2023-01-31T08:31:14;10.05;;;3.17;;
77866;SDS011;67271;59.120;37.970;2023-01-31T08:33:45;4.13;;;3.03;;
77866;SDS011;67271;59.120;37.970;2023-01-31T08:36:15;5.68;;;3.47;;
77866;SDS011;67271;59.120;37.970;2023-01-31T08:38:43;6.15;;;3.90;;
77866;SDS011;67271;59.120;37.970;2023-01-31T08:41:09;6.18;;;4.25;;
77866;SDS011;67271;59.120;37.970;2023-01-31T08:43:36;6.63;;;3.58;;
77866;SDS011;67271;59.120;37.970;2023-01-31T08:46:04;6.40;;;3.90;;
77866;SDS011;67271;59.120;37.970;2023-01-31T08:48:34;6.57;;;3.85;;
77866;SDS011;67271;59.120;37.970;2023-01-31T08:53:27;5.63;;;3.35;;
77866;SDS011;67271;59.120;37.970;2023-01-31T08:55:56;9.88;;;4.35;;
77866;SDS011;67271;59.120;37.970;2023-01-31T08:58:24;6.28;;;4.22;;
77866;SDS011;67271;59.120;37.970;2023-01-31T09:00:49;6.05;;;4.40;;
77866;SDS011;67271;59.120;37.970;2023-01-31T09:03:15;7.90;;;5.00;;
77866;SDS011;67271;59.120;37.970;2023-01-31T09:05:41;6.97;;;4.20;;
77866;SDS011;67271;59.120;37.970;2023-01-31T09:08:07;7.85;;;3.78;;
77866;SDS011;67271;59.120;37.970;2023-01-31T09:10:32;7.80;;;3.75;;
77866;SDS011;67271;59.120;37.970;2023-01-31T09:12:58;6.75;;;3.78;;
77866;SDS011;67271;59.120;37.970;2023-01-31T09:15:25;7.05;;;4.38;;
77866;SDS011;67271;59.120;37.970;2023-01-31T09:17:54;6.28;;;3.53;;
77866;SDS011;67271;59.120;37.970;2023-01-31T09:20:20;6.95;;;4.03;;
77866;SDS011;67271;59.120;37.970;2023-01-31T09:22:46;4.47;;;3.03;;
77866;SDS011;67271;59.120;37.970;2023-01-31T09:25:11;7.10;;;3.78;;
77866;SDS011;67271;59.120;37.970;2023-01-31T09:27:37;6.18;;;4.25;;
77866;SDS011;67271;59.120;37.970;2023-01-31T09:30:04;7.22;;;3.83;;
77866;SDS011;67271;59.120;37.970;2023-01-31T09:32:31;6.00;;;4.32;;
77866;SDS011;67271;59.120;37.970;2023-01-31T09:34:57;9.45;;;3.28;;
77866;SDS011;67271;59.120;37.970;2023-01-31T09:37:23;6.07;;;3.38;;
77866;SDS011;67271;59.120;37.970;2023-01-31T09:39:49;4.72;;;3.53;;
77866;SDS011;67271;59.120;37.970;2023-01-31T09:42:22;7.53;;;3.63;;
77866;SDS011;67271;59.120;37.970;2023-01-31T09:44:57;6.43;;;3.42;;
77866;SDS011;67271;59.120;37.970;2023-01-31T09:47:39;7.70;;;3.85;;
77866;SDS011;67271;59.120;37.970;2023-01-31T09:53:10;6.68;;;4.30;;
77866;SDS011;67271;59.120;37.970;2023-01-31T10:00:55;8.25;;;3.15;;
77866;SDS011;67271;59.120;37.970;2023-01-31T10:03:35;6.93;;;3.35;;
77866;SDS011;67271;59.120;37.970;2023-01-31T10:11:53;6.88;;;3.58;;
77866;SDS011;67271;59.120;37.970;2023-01-31T10:14:36;5.72;;;3.92;;
77866;SDS011;67271;59.120;37.970;2023-01-31T10:17:12;4.78;;;3.40;;
77866;SDS011;67271;59.120;37.970;2023-01-31T10:22:29;5.13;;;3.03;;
77866;SDS011;67271;59.120;37.970;2023-01-31T10:24:57;8.50;;;4.18;;
77866;SDS011;67271;59.120;37.970;2023-01-31T10:30:16;9.32;;;4.60;;
77866;SDS011;67271;59.120;37.970;2023-01-31T10:32:46;9.90;;;4.20;;
77866;SDS011;67271;59.120;37.970;2023-01-31T10:35:22;8.10;;;3.58;;
77866;SDS011;67271;59.120;37.970;2023-01-31T10:38:38;4.90;;;3.58;;
77866;SDS011;67271;59.120;37.970;2023-01-31T10:40:52;4.38;;;3.28;;
77866;SDS011;67271;59.120;37.970;2023-01-31T10:45:58;3.88;;;2.45;;
77866;SDS011;67271;59.120;37.970;2023-01-31T10:48:26;5.75;;;3.83;;
77866;SDS011;67271;59.120;37.970;2023-01-31T10:53:30;4.15;;;2.72;;
77866;SDS011;67271;59.120;37.970;2023-01-31T10:58:48;7.55;;;3.85;;
77866;SDS011;67271;59.120;37.970;2023-01-31T11:01:15;10.23;;;5.57;;
77866;SDS011;67271;59.120;37.970;2023-01-31T11:03:44;5.68;;;3.60;;
77866;SDS011;67271;59.120;37.970;2023-01-31T11:06:15;13.93;;;4.43;;
77866;SDS011;67271;59.120;37.970;2023-01-31T11:08:42;6.90;;;3.65;;
77866;SDS011;67271;59.120;37.970;2023-01-31T11:11:13;4.95;;;3.47;;
77866;SDS011;67271;59.120;37.970;2023-01-31T11:16:29;5.63;;;3.80;;
77866;SDS011;67271;59.120;37.970;2023-01-31T11:18:58;6.82;;;4.43;;
77866;SDS011;67271;59.120;37.970;2023-01-31T11:21:29;4.22;;;3.28;;
77866;SDS011;67271;59.120;37.970;2023-01-31T11:24:04;6.50;;;3.72;;
77866;SDS011;67271;59.120;37.970;2023-01-31T11:26:39;13.82;;;4.97;;
77866;SDS011;67271;59.120;37.970;2023-01-31T11:29:21;7.80;;;4.13;;
77866;SDS011;67271;59.120;37.970;2023-01-31T11:31:52;7.65;;;4.32;;
77866;SDS011;67271;59.120;37.970;2023-01-31T11:34:23;5.82;;;3.55;;
77866;SDS011;67271;59.120;37.970;2023-01-31T11:36:50;4.72;;;3.08;;
77866;SDS011;67271;59.120;37.970;2023-01-31T11:39:27;6.40;;;3.35;;
77866;SDS011;67271;59.120;37.970;2023-01-31T11:42:06;6.25;;;3.83;;
77866;SDS011;67271;59.120;37.970;2023-01-31T11:44:52;3.63;;;1.67;;
77866;SDS011;67271;59.120;37.970;2023-01-31T11:50:06;8.98;;;4.60;;
77866;SDS011;67271;59.120;37.970;2023-01-31T11:52:42;7.57;;;4.55;;
77866;SDS011;67271;59.120;37.970;2023-01-31T11:55:11;8.05;;;4.03;;
77866;SDS011;67271;59.120;37.970;2023-01-31T11:57:41;6.68;;;3.95;;
77866;SDS011;67271;59.120;37.970;2023-01-31T12:02:57;4.53;;;3.30;;
77866;SDS011;67271;59.120;37.970;2023-01-31T12:05:45;6.13;;;3.40;;
77866;SDS011;67271;59.120;37.970;2023-01-31T12:11:04;8.18;;;4.55;;
77866;SDS011;67271;59.120;37.970;2023-01-31T12:13:30;6.75;;;4.10;;
77866;SDS011;67271;59.120;37.970;2023-01-31T12:16:09;4.13;;;2.97;;
77866;SDS011;67271;59.120;37.970;2023-01-31T12:40:34;6.32;;;3.33;;
77866;SDS011;67271;59.120;37.970;2023-01-31T12:52:03;8.57;;;5.78;;
77866;SDS011;67271;59.120;37.970;2023-01-31T13:00:53;5.53;;;3.35;;
77866;SDS011;67271;59.120;37.970;2023-01-31T13:06:38;6.07;;;3.40;;
77866;SDS011;67271;59.120;37.970;2023-01-31T13:09:09;7.03;;;3.88;;
77866;SDS011;67271;59.120;37.970;2023-01-31T13:14:25;8.43;;;4.15;;
77866;SDS011;67271;59.120;37.970;2023-01-31T13:16:56;6.63;;;3.75;;
77866;SDS011;67271;59.120;37.970;2023-01-31T13:19:34;7.15;;;4.18;;
77866;SDS011;67271;59.120;37.970;2023-01-31T13:22:11;5.40;;;3.90;;
77866;SDS011;67271;59.120;37.970;2023-01-31T13:24:41;11.30;;;5.05;;
77866;SDS011;67271;59.120;37.970;2023-01-31T13:27:20;6.50;;;4.38;;
77866;SDS011;67271;59.120;37.970;2023-01-31T13:29:55;6.65;;;3.83;;
77866;SDS011;67271;59.120;37.970;2023-01-31T13:35:17;7.38;;;4.47;;
77866;SDS011;67271;59.120;37.970;2023-01-31T13:37:48;3.70;;;2.83;;
77866;SDS011;67271;59.120;37.970;2023-01-31T13:40:19;5.28;;;3.50;;
77866;SDS011;67271;59.120;37.970;2023-01-31T13:42:48;10.88;;;4.03;;
77866;SDS011;67271;59.120;37.970;2023-01-31T13:45:36;8.68;;;3.92;;
77866;SDS011;67271;59.120;37.970;2023-01-31T13:48:08;8.77;;;4.95;;
77866;SDS011;67271;59.120;37.970;2023-01-31T13:51:07;6.88;;;4.38;;
77866;SDS011;67271;59.120;37.970;2023-01-31T13:54:05;6.88;;;4.38;;
77866;SDS011;67271;59.120;37.970;2023-01-31T13:56:38;10.50;;;5.38;;
77866;SDS011;67271;59.120;37.970;2023-01-31T13:59:06;9.45;;;4.70;;
77866;SDS011;67271;59.120;37.970;2023-01-31T14:01:34;6.88;;;3.42;;
77866;SDS011;67271;59.120;37.970;2023-01-31T14:11:55;4.32;;;2.92;;
77866;SDS011;67271;59.120;37.970;2023-01-31T14:14:36;4.30;;;2.17;;
77866;SDS011;67271;59.120;37.970;2023-01-31T14:22:14;10.32;;;5.28;;
77866;SDS011;67271;59.120;37.970;2023-01-31T14:29:53;8.27;;;5.43;;
77866;SDS011;67271;59.120;37.970;2023-01-31T14:32:46;7.70;;;4.75;;
77866;SDS011;67271;59.120;37.970;2023-01-31T14:40:52;7.05;;;4.00;;
77866;SDS011;67271;59.120;37.970;2023-01-31T14:51:50;3.72;;;2.50;;
77866;SDS011;67271;59.120;37.970;2023-01-31T15:07:35;2.40;;;1.67;;
77866;SDS011;67271;59.120;37.970;2023-01-31T15:16:02;5.47;;;3.05;;
77866;SDS011;67271;59.120;37.970;2023-01-31T15:18:31;4.20;;;3.03;;
77866;SDS011;67271;59.120;37.970;2023-01-31T15:21:00;5.95;;;3.17;;
77866;SDS011;67271;59.120;37.970;2023-01-31T15:23:30;2.80;;;2.22;;
77866;SDS011;67271;59.120;37.970;2023-01-31T15:25:58;6.55;;;4.03;;
77866;SDS011;67271;59.120;37.970;2023-01-31T15:28:33;3.38;;;2.40;;
77866;SDS011;67271;59.120;37.970;2023-01-31T15:31:03;6.25;;;3.20;;
77866;SDS011;67271;59.120;37.970;2023-01-31T15:33:40;7.13;;;3.15;;
77866;SDS011;67271;59.120;37.970;2023-01-31T15:36:19;2.92;;;1.63;;
77866;SDS011;67271;59.120;37.970;2023-01-31T15:38:54;6.05;;;3.05;;
77866;SDS011;67271;59.120;37.970;2023-01-31T15:41:25;5.82;;;3.63;;
77866;SDS011;67271;59.120;37.970;2023-01-31T15:46:41;4.70;;;3.15;;
77866;SDS011;67271;59.120;37.970;2023-01-31T15:49:25;4.97;;;3.20;;
77866;SDS011;67271;59.120;37.970;2023-01-31T15:54:33;5.97;;;2.95;;
77866;SDS011;67271;59.120;37.970;2023-01-31T15:56:59;3.55;;;2.03;;
77866;SDS011;67271;59.120;37.970;2023-01-31T15:59:27;2.42;;;1.70;;
77866;SDS011;67271;59.120;37.970;2023-01-31T16:01:56;4.50;;;3.10;;
77866;SDS011;67271;59.120;37.970;2023-01-31T16:04:25;4.90;;;2.97;;
77866;SDS011;67271;59.120;37.970;2023-01-31T16:06:52;5.07;;;2.60;;
77866;SDS011;67271;59.120;37.970;2023-01-31T16:09:23;3.63;;;2.35;;
77866;SDS011;67271;59.120;37.970;2023-01-31T16:11:53;3.22;;;2.08;;
77866;SDS011;67271;59.120;37.970;2023-01-31T16:14:22;4.63;;;1.80;;
77866;SDS011;67271;59.120;37.970;2023-01-31T16:16:50;2.95;;;2.55;;
77866;SDS011;67271;59.120;37.970;2023-01-31T16:19:39;2.33;;;1.58;;
77866;SDS011;67271;59.120;37.970;2023-01-31T16:22:18;4.22;;;2.03;;
77866;SDS011;67271;59.120;37.970;2023-01-31T16:24:59;2.70;;;1.35;;
77866;SDS011;67271;59.120;37.970;2023-01-31T16:27:28;3.13;;;1.77;;
77866;SDS011;67271;59.120;37.970;2023-01-31T16:29:57;3.25;;;1.92;;
77866;SDS011;67271;59.120;37.970;2023-01-31T16:34:52;4.15;;;2.75;;
77866;SDS011;67271;59.120;37.970;2023-01-31T16:37:32;4.50;;;2.80;;
77866;SDS011;67271;59.120;37.970;2023-01-31T16:40:02;2.40;;;1.95;;
77866;SDS011;67271;59.120;37.970;2023-01-31T16:42:44;2.38;;;1.80;;
77866;SDS011;67271;59.120;37.970;2023-01-31T16:48:08;3.40;;;1.80;;
77866;SDS011;67271;59.120;37.970;2023-01-31T16:50:41;0.85;;;0.70;;
77866;SDS011;67271;59.120;37.970;2023-01-31T16:53:18;1.35;;;1.13;;
77866;SDS011;67271;59.120;37.970;2023-01-31T16:58:52;1.95;;;1.75;;
77866;SDS011;67271;59.120;37.970;2023-01-31T17:01:21;2.80;;;1.55;;
77866;SDS011;67271;59.120;37.970;2023-01-31T17:06:33;2.40;;;1.40;;
77866;SDS011;67271;59.120;37.970;2023-01-31T17:09:00;1.38;;;1.27;;
77866;SDS011;67271;59.120;37.970;2023-01-31T17:11:27;1.30;;;1.00;;
77866;SDS011;67271;59.120;37.970;2023-01-31T17:13:53;2.17;;;1.30;;
77866;SDS011;67271;59.120;37.970;2023-01-31T17:16:21;1.38;;;1.25;;
77866;SDS011;67271;59.120;37.970;2023-01-31T17:18:51;2.50;;;1.55;;
77866;SDS011;67271;59.120;37.970;2023-01-31T17:21:19;0.85;;;0.85;;
77866;SDS011;67271;59.120;37.970;2023-01-31T17:23:46;1.50;;;1.40;;
77866;SDS011;67271;59.120;37.970;2023-01-31T17:26:21;1.75;;;1.17;;
77866;SDS011;67271;59.120;37.970;2023-01-31T17:28:48;0.90;;;0.90;;
77866;SDS011;67271;59.120;37.970;2023-01-31T17:31:20;0.95;;;0.95;;
77866;SDS011;67271;59.120;37.970;2023-01-31T17:33:48;1.33;;;1.10;;
77866;SDS011;67271;59.120;37.970;2023-01-31T17:36:15;1.65;;;0.82;;
77866;SDS011;67271;59.120;37.970;2023-01-31T17:38:42;1.27;;;1.08;;
77866;SDS011;67271;59.120;37.970;2023-01-31T17:41:09;1.85;;;1.30;;
77866;SDS011;67271;59.120;37.970;2023-01-31T17:43:40;2.55;;;1.48;;
77866;SDS011;67271;59.120;37.970;2023-01-31T17:46:06;2.25;;;1.52;;
77866;SDS011;67271;59.120;37.970;2023-01-31T17:48:35;1.23;;;0.80;;
77866;SDS011;67271;59.120;37.970;2023-01-31T17:51:01;1.42;;;1.33;;
77866;SDS011;67271;59.120;37.970;2023-01-31T17:53:27;1.60;;;1.23;;
77866;SDS011;67271;59.120;37.970;2023-01-31T17:55:52;1.77;;;1.05;;
77866;SDS011;67271;59.120;37.970;2023-01-31T17:58:19;1.45;;;1.20;;
77866;SDS011;67271;59.120;37.970;2023-01-31T18:00:46;2.33;;;1.70;;
77866;SDS011;67271;59.120;37.970;2023-01-31T18:03:21;1.83;;;1.40;;
77866;SDS011;67271;59.120;37.970;2023-01-31T18:05:49;1.60;;;1.10;;
77866;SDS011;67271;59.120;37.970;2023-01-31T18:08:15;1.35;;;0.88;;
77866;SDS011;67271;59.120;37.970;2023-01-31T18:10:41;1.25;;;1.13;;
77866;SDS011;67271;59.120;37.970;2023-01-31T18:13:08;2.03;;;1.40;;
77866;SDS011;67271;59.120;37.970;2023-01-31T18:15:34;1.33;;;1.00;;
77866;SDS011;67271;59.120;37.970;2023-01-31T18:18:03;2.20;;;1.80;;
77866;SDS011;67271;59.120;37.970;2023-01-31T18:20:36;1.10;;;1.00;;